MMMX/MEX METAR and TAF weather

Enter ICAO airport designator
Station Type Date Time Source
MMMX METAR 2019/05/21 20:47 UTC NOAA

MMMX 212047Z 09011KT 7SM FEW020 29/01 A3012 NOSIG RMK SLP984 57020 967 8/100 HZY


Station Type Date Time Source
MMMX Decoded METAR 2019/05/21 20:47 UTC NOAA

Mexico City / Licenci, Mexico (MMMX) 19-26N 099-06W
May 21, 2019 - 04:47 PM EDT / 2019.05.21 2047 UTC
Wind: from the E (090 degrees) at 13 MPH (11 KT):0
Visibility: 7 mile(s):0
Sky conditions: mostly clear
Temperature: 84 F (29 C)
Dew Point: 33 F (1 C)
Relative Humidity: 16%
Pressure (altimeter): 30.12 in. Hg (1019 hPa)
Pressure tendency: 0.06 inches (2.0 hPa) lower than three hours ago
ob: MMMX 212047Z 09011KT 7SM FEW020 29/01 A3012 NOSIG RMK SLP984 57020 967 8/100 HZY
cycle: 21

Station Type Date Time Source
MMMX TAF 2019/05/21 18:37 UTC NOAA

TAF MMMX 211633Z 2118/2224 12005KT 6SM HZ SCT025 TX29/2120Z TN16/2212Z
FM212100 12010KT P6SM BKN025
FM212300 18015KT 6SM VC TSRA BKN025CB
TEMPO 2200/2204 3SM TSRA OVC020CB
FM220400 00000KT P6SM SCT100 BKN200
FM221200 00000KT 5SM HZ SKC
FM222100 23010KT 6SM HZ BKN025CB

Example: see airport list